Latest Weather Observations for Tibooburra Airport

IDN60801

Issued at 12:34 pm EDT Monday 2 February 2015 (issued every 30 minutes, with the page automatically refreshed every 10 minutes)

About weather observations | Map of weather stations | Latest weather observations for NSW | Other Formats
Station Details ID: 046126 Name: TIBOOBURRA AIRPORT Lat: -29.44 Lon: 142.06 Height: 176.4 m
Data from the previous 72 hours. | See also: Recent months for locations in New South Wales
Date/Time
EDT
Temp
°C
App
Temp
°C
Dew
Point
Rel
Hum
%
Delta-T
°C
Wind Press
QNH
hPa
Press
MSL
hPa
Rain
since 9 am
mm
Dir
 
Spd
km/h
Gust
km/h
Spd
kts
Gust
kts
02/12:30pm 25.3 - - - - SSW 28 39 15 21 1014.9 1013.8 0.0
02/12:00pm 25.7 - - - - S 24 41 13 22 1015.1 1014.0 0.0
02/11:30am 25.4 - - - - S 28 41 15 22 1015.2 1014.1 0.0
02/11:00am 24.0 - - - - S 28 39 15 21 1015.3 1014.2 0.0
02/10:30am 23.3 - - - - S 28 37 15 20 1015.3 1014.2 0.0
02/10:00am 21.9 - - - - SSE 32 43 17 23 1015.2 1014.1 0.0
02/09:30am 21.1 - - - - S 33 43 18 23 1015.1 1014.0 0.0
02/09:00am 19.9 - - - - S 33 43 18 23 1015.0 1013.9 0.0
02/08:30am 19.3 - - - - S 32 43 17 23 1014.7 1013.5 0.0
02/08:00am 18.8 - - - - S 26 35 14 19 1014.2 1013.0 0.0
02/07:30am 18.3 - - - - S 24 30 13 16 1013.8 1012.6 0.0
02/07:00am 18.3 - - - - S 24 32 13 17 1013.4 1012.2 0.0
02/06:30am 18.7 - - - - S 28 39 15 21 1012.9 1011.7 0.0
02/06:00am 19.2 - - - - S 28 37 15 20 1012.5 1011.3 0.0
02/05:30am 19.3 - - - - S 26 33 14 18 1012.2 1011.0 0.0
02/05:00am 19.7 - - - - S 28 35 15 19 1011.9 1010.7 0.0
02/04:30am 20.1 - - - - S 28 39 15 21 1011.7 1010.5 0.0
02/04:00am 20.2 - - - - SSW 24 30 13 16 1011.6 1010.4 0.0
02/03:30am 20.7 - - - - S 22 26 12 14 1011.5 1010.3 0.0
02/03:00am 21.4 - - - - S 22 28 12 15 1011.6 1010.4 0.0
02/02:30am 21.3 - - - - S 19 24 10 13 1011.7 1010.5 0.0
02/02:00am 21.3 - - - - S 19 24 10 13 1011.9 1010.7 0.0
02/01:30am 21.9 - - - - S 24 32 13 17 1012.1 1010.9 0.0
02/01:00am 22.2 - - - - S 26 32 14 17 1012.2 1011.0 0.0
02/12:30am 22.8 - - - - S 26 33 14 18 1012.2 1011.0 0.0
02/12:00am 23.1 - - - - S 24 32 13 17 1012.4 1011.2 0.0
 
Date/Time
EDT
Temp
°C
App
Temp
°C
Dew
Point
Rel
Hum
%
Delta-T
°C
Wind Press
QNH
hPa
Press
MSL
hPa
Rain
since 9 am
mm
Dir
 
Spd
km/h
Gust
km/h
Spd
kts
Gust
kts
01/11:30pm 23.5 - - - - S 24 32 13 17 1012.2 1011.0 0.0
01/11:00pm 24.0 - - - - S 22 30 12 16 1012.2 1011.0 0.0
01/10:30pm 24.8 - - - - S 24 35 13 19 1012.0 1010.8 0.0
01/10:00pm 25.0 - - - - SSW 22 28 12 15 1011.7 1010.5 0.0
01/09:30pm 25.6 - - - - SSW 22 28 12 15 1011.6 1010.4 0.0
01/09:00pm 26.2 - - - - SSW 24 33 13 18 1011.4 1010.2 0.0
01/08:30pm 26.8 - - - - SSW 30 39 16 21 1011.1 1009.9 0.0
01/08:00pm 27.8 - - - - SSW 30 37 16 20 1010.8 1009.6 0.0
01/07:30pm 28.5 - - - - SSW 26 35 14 19 1010.5 1009.3 0.0
01/07:00pm 29.1 - - - - SSW 28 39 15 21 1010.1 1009.0 0.0
01/06:30pm 29.8 - - - - SSW 28 39 15 21 1010.0 1008.9 0.0
01/06:00pm 30.1 - - - - SW 30 43 16 23 1009.8 1008.7 0.0
01/05:30pm 30.6 - - - - SW 32 46 17 25 1010.0 1008.9 0.0
01/05:00pm 30.6 - - - - SW 28 41 15 22 1010.0 1008.9 0.0
01/04:36pm 30.8 - - - - SSW 28 50 15 27 1010.0 1008.9 0.0
01/04:30pm 30.3 - - - - SSW 28 41 15 22 1010.0 1008.9 0.0
01/04:00pm 29.8 - - - - SW 24 39 13 21 1010.1 1009.0 0.0
01/03:49pm 31.1 - - - - SW 22 50 12 27 1010.1 1009.0 0.0
01/03:30pm 30.8 - - - - SW 26 39 14 21 1010.4 1009.2 0.0
01/03:00pm 30.4 - - - - SW 22 37 12 20 1010.6 1009.4 0.0
01/02:30pm 29.5 - - - - SW 20 37 11 20 1011.0 1009.8 0.0
01/02:00pm 30.1 - - - - SSW 20 33 11 18 1011.3 1010.1 0.0
01/01:30pm 29.6 - - - - SW 20 32 11 17 1011.6 1010.4 0.0
01/01:00pm 29.5 - - - - SSW 19 28 10 15 1012.0 1010.8 0.0
01/12:30pm 28.6 - - - - S 13 20 7 11 1012.3 1011.1 0.0
01/12:00pm 28.1 - - - - S 13 22 7 12 1012.3 1011.1 0.0
01/11:30am 27.1 - - - - S 17 24 9 13 1012.5 1011.3 0.0
01/11:00am 26.4 - - - - S 19 26 10 14 1012.5 1011.3 0.0
01/10:30am 25.8 - - - - S 17 24 9 13 1012.5 1011.2 0.0
01/10:00am 24.7 - - - - SSE 20 28 11 15 1012.4 1011.1 0.0
01/09:30am 24.0 - - - - S 19 24 10 13 1012.0 1010.7 0.0
01/09:00am 23.2 - - - - SSE 24 32 13 17 1011.9 1010.6 0.0
01/08:30am 22.3 - - - - S 15 19 8 10 1011.8 1010.5 0.0
01/08:00am 20.2 - - - - SSW 11 13 6 7 1011.3 1010.0 0.0
01/07:30am 18.3 - - - - SW 11 13 6 7 1010.9 1009.6 0.0
01/07:00am 18.1 - - - - SW 13 15 7 8 1010.6 1009.3 0.0
01/06:30am 18.9 - - - - S 7 11 4 6 1010.4 1009.1 0.0
01/06:00am 18.8 - - - - S 11 15 6 8 1010.1 1008.9 0.0
01/05:30am 18.6 - - - - SW 9 11 5 6 1009.9 1008.7 0.0
01/05:00am 18.0 - - - - SW 13 15 7 8 1009.8 1008.6 0.0
01/04:30am 19.2 - - - - SW 9 9 5 5 1009.5 1008.3 0.0
01/04:00am 19.8 - - - - SW 7 9 4 5 1009.3 1008.1 0.0
01/03:30am 20.5 - - - - SW 7 9 4 5 1009.4 1008.2 0.0
01/03:00am 20.2 - - - - WSW 9 9 5 5 1009.6 1008.4 0.0
01/02:30am 20.6 - - - - WSW 9 9 5 5 1009.8 1008.6 0.0
01/02:00am 21.1 - - - - SW 6 7 3 4 1010.1 1008.9 0.0
01/01:30am 22.0 - - - - SSW 7 9 4 5 1010.6 1009.3 0.0
01/01:00am 22.1 - - - - S 7 11 4 6 1010.9 1009.6 0.0
01/12:30am 22.9 - - - - S 9 11 5 6 1011.0 1009.7 0.0
01/12:00am 23.6 - - - - SSW 9 11 5 6 1010.9 1009.6 0.0
 
Date/Time
EDT
Temp
°C
App
Temp
°C
Dew
Point
Rel
Hum
%
Delta-T
°C
Wind Press
QNH
hPa
Press
MSL
hPa
Rain
since 9 am
mm
Dir
 
Spd
km/h
Gust
km/h
Spd
kts
Gust
kts
31/11:30pm 24.2 - - - - SSW 9 9 5 5 1011.1 1009.8 0.0
31/11:00pm 24.4 - - - - SSW 9 11 5 6 1010.9 1009.6 0.0
31/10:30pm 24.9 - - - - SW 7 9 4 5 1010.9 1009.6 0.0
31/10:00pm 25.6 - - - - SSW 9 11 5 6 1010.6 1009.3 0.0
31/09:30pm 26.7 - - - - SSE 7 9 4 5 1010.4 1009.1 0.0
31/09:00pm 27.7 - - - - S 13 15 7 8 1010.0 1008.8 0.0
31/08:30pm 28.8 - - - - S 19 24 10 13 1009.9 1008.7 0.0
31/08:00pm 29.9 - - - - S 20 32 11 17 1009.7 1008.5 0.0
31/07:30pm 30.3 - - - - S 22 30 12 16 1009.5 1008.3 0.0
31/07:00pm 31.1 - - - - S 22 35 12 19 1009.1 1007.9 0.0
31/06:30pm 31.4 - - - - S 22 30 12 16 1009.1 1007.9 0.0
31/06:00pm 31.6 - - - - S 20 41 11 22 1009.1 1007.9 0.0
31/05:30pm 31.9 - - - - S 28 44 15 24 1009.3 1008.1 0.0
31/05:28pm 31.8 - - - - S 30 44 16 24 1009.3 1008.1 0.0
31/05:00pm 31.5 - - - - S 20 39 11 21 1009.4 1008.2 0.0
31/04:30pm 32.0 - - - - S 26 39 14 21 1009.9 1008.7 0.0
31/04:00pm 31.4 - - - - SSE 22 33 12 18 1010.1 1008.9 0.0
31/03:30pm 31.3 - - - - SSE 22 35 12 19 1010.5 1009.2 0.0
31/03:00pm 31.6 - - - - SSE 22 33 12 18 1010.7 1009.4 0.0
31/02:30pm 31.1 - - - - SSE 19 30 10 16 1010.8 1009.5 0.0
31/02:00pm 30.2 - - - - S 26 37 14 20 1011.2 1009.9 0.0
31/01:30pm 29.7 - - - - SSW 19 35 10 19 1011.3 1010.0 0.0
31/01:00pm 30.3 - - - - S 20 30 11 16 1011.6 1010.3 0.0
31/12:30pm 29.1 - - - - S 11 22 6 12 1011.9 1010.6 0.0
31/12:00pm 28.1 - - - - SE 15 26 8 14 1012.2 1010.9 0.0
31/11:30am 27.4 - - - - SSE 13 22 7 12 1012.3 1011.0 0.0
31/11:00am 26.7 - - - - ESE 15 20 8 11 1012.4 1011.1 0.0
31/10:30am 26.5 - - - - ESE 17 20 9 11 1012.4 1011.1 0.0
31/10:00am 25.6 - - - - SE 15 20 8 11 1012.3 1011.0 0.0
31/09:30am 24.5 - - - - SE 17 20 9 11 1012.1 1010.8 0.0
31/09:00am 23.6 - - - - SE 19 22 10 12 1011.9 1010.6 0.0
31/08:30am 21.9 - - - - S 11 15 6 8 1011.9 1010.6 0.0
31/08:00am 20.2 - - - - SSW 9 9 5 5 1011.6 1010.3 0.0
31/07:30am 18.4 - - - - SW 7 9 4 5 1011.3 1010.0 0.0
31/07:00am 17.7 - - - - SW 7 9 4 5 1010.9 1009.6 0.0
31/06:30am 17.9 - - - - SW 9 11 5 6 1010.7 1009.4 0.0
31/06:00am 18.7 - - - - SSW 9 11 5 6 1010.5 1009.2 0.0
31/05:30am 18.9 - - - - SSW 7 9 4 5 1010.4 1009.1 0.0
31/05:00am 19.5 - - - - S 9 13 5 7 1010.2 1009.0 0.0
31/04:30am 20.2 - - - - S 13 17 7 9 1010.1 1008.9 0.0
31/04:00am 20.5 - - - - S 13 15 7 8 1010.1 1008.9 0.0
31/03:30am 20.9 - - - - S 11 15 6 8 1010.0 1008.8 0.0
31/03:00am 21.9 - - - - SSE 15 17 8 9 1009.9 1008.7 0.0
31/02:30am 22.0 - - - - S 13 17 7 9 1009.9 1008.7 0.0
31/02:00am 21.9 - - - - S 11 13 6 7 1010.0 1008.8 0.0
31/01:30am 22.4 - - - - SSE 13 15 7 8 1010.0 1008.8 0.0
31/01:00am 23.1 - - - - S 13 17 7 9 1010.1 1008.9 0.0
31/12:30am 23.4 - - - - SSE 11 15 6 8 1010.1 1008.9 0.0
31/12:00am 23.9 - - - - SSE 11 15 6 8 1010.2 1009.0 0.0
 
Date/Time
EDT
Temp
°C
App
Temp
°C
Dew
Point
Rel
Hum
%
Delta-T
°C
Wind Press
QNH
hPa
Press
MSL
hPa
Rain
since 9 am
mm
Dir
 
Spd
km/h
Gust
km/h
Spd
kts
Gust
kts
30/11:30pm 24.4 - - - - SSE 13 15 7 8 1010.2 1009.0 0.0
30/11:00pm 24.9 - - - - S 11 13 6 7 1010.2 1009.0 0.0
30/10:30pm 25.8 - - - - S 15 17 8 9 1010.0 1008.8 0.0
30/10:00pm 26.4 - - - - S 15 17 8 9 1010.0 1008.8 0.0
30/09:30pm 27.4 - - - - S 17 20 9 11 1009.9 1008.7 0.0
30/09:00pm 28.1 - - - - S 22 28 12 15 1009.6 1008.4 0.0
30/08:30pm 28.7 - - - - S 24 30 13 16 1009.3 1008.1 0.0
30/08:00pm 29.6 - - - - S 24 33 13 18 1009.0 1007.7 0.0
30/07:30pm 30.2 - - - - S 26 35 14 19 1008.7 1007.4 0.0
30/07:00pm 30.7 - - - - S 26 37 14 20 1008.5 1007.2 0.0
30/06:30pm 31.5 - - - - SSW 28 35 15 19 1008.4 1007.1 0.0
30/06:00pm 31.5 - - - - S 24 39 13 21 1008.4 1007.1 0.0
30/05:30pm 31.6 - - - - S 24 39 13 21 1008.4 1007.1 0.0
30/05:00pm 32.4 - - - - S 30 41 16 22 1008.5 1007.2 0.0
30/04:30pm 31.7 - - - - S 28 39 15 21 1008.8 1007.5 0.0
30/04:00pm 32.0 - - - - S 26 44 14 24 1009.1 1007.9 0.0
30/03:30pm 31.3 - - - - S 22 37 12 20 1009.4 1008.2 0.0
30/03:00pm 31.9 - - - - S 26 43 14 23 1009.7 1008.5 0.0
30/02:30pm 31.1 - - - - S 28 41 15 22 1010.4 1009.1 0.0
30/02:00pm 31.0 - - - - S 24 37 13 20 1010.7 1009.4 0.0
30/01:30pm 30.7 - - - - S 22 30 12 16 1011.1 1009.8 0.0
30/01:00pm 31.3 - - - - S 24 35 13 19 1011.4 1010.1 0.0

Other Formats:

Comma delimited format used in spreadsheet applications
http://www.bom.gov.au/fwo/IDN60801/IDN60801.95485.axf

JavaScript Object Notation format (JSON) in row-major order
http://www.bom.gov.au/fwo/IDN60801/IDN60801.95485.json